sensor_id;sensor_type;location;lat;lon;timestamp;temperature;humidity
17728;DHT22;8984;49.268;12.302;2023-12-28T00:02:02;3.40;99.90
17728;DHT22;8984;49.268;12.302;2023-12-28T00:04:29;3.40;99.90
17728;DHT22;8984;49.268;12.302;2023-12-28T00:06:56;3.30;99.90
17728;DHT22;8984;49.268;12.302;2023-12-28T00:09:22;3.30;99.90
17728;DHT22;8984;49.268;12.302;2023-12-28T00:11:49;3.30;99.90
17728;DHT22;8984;49.268;12.302;2023-12-28T00:14:16;3.40;99.90
17728;DHT22;8984;49.268;12.302;2023-12-28T00:16:44;3.40;99.90
17728;DHT22;8984;49.268;12.302;2023-12-28T00:19:11;3.40;99.90
17728;DHT22;8984;49.268;12.302;2023-12-28T00:21:38;3.40;99.90
17728;DHT22;8984;49.268;12.302;2023-12-28T00:24:05;3.40;99.90
17728;DHT22;8984;49.268;12.302;2023-12-28T00:26:32;3.50;99.90
17728;DHT22;8984;49.268;12.302;2023-12-28T00:28:59;3.40;99.90
17728;DHT22;8984;49.268;12.302;2023-12-28T00:31:25;3.50;99.90
17728;DHT22;8984;49.268;12.302;2023-12-28T00:33:53;3.40;99.90
17728;DHT22;8984;49.268;12.302;2023-12-28T00:36:20;3.40;99.90
17728;DHT22;8984;49.268;12.302;2023-12-28T00:38:47;3.40;99.90
17728;DHT22;8984;49.268;12.302;2023-12-28T00:41:14;3.40;99.90
17728;DHT22;8984;49.268;12.302;2023-12-28T00:43:40;3.50;99.90
17728;DHT22;8984;49.268;12.302;2023-12-28T00:46:07;3.30;99.90
17728;DHT22;8984;49.268;12.302;2023-12-28T00:48:34;3.30;99.90
17728;DHT22;8984;49.268;12.302;2023-12-28T00:51:02;3.20;99.90
17728;DHT22;8984;49.268;12.302;2023-12-28T00:53:28;3.20;99.90
17728;DHT22;8984;49.268;12.302;2023-12-28T00:55:55;3.10;99.90
17728;DHT22;8984;49.268;12.302;2023-12-28T00:58:22;3.20;99.90
17728;DHT22;8984;49.268;12.302;2023-12-28T01:00:49;3.20;99.90
17728;DHT22;8984;49.268;12.302;2023-12-28T01:03:18;3.00;99.90
17728;DHT22;8984;49.268;12.302;2023-12-28T01:05:45;3.00;99.90
17728;DHT22;8984;49.268;12.302;2023-12-28T01:08:17;2.90;99.90
17728;DHT22;8984;49.268;12.302;2023-12-28T01:10:44;2.80;99.90
17728;DHT22;8984;49.268;12.302;2023-12-28T01:13:10;2.90;99.90
17728;DHT22;8984;49.268;12.302;2023-12-28T01:15:37;2.90;99.90
17728;DHT22;8984;49.268;12.302;2023-12-28T01:18:04;3.00;99.90
17728;DHT22;8984;49.268;12.302;2023-12-28T01:20:31;3.00;99.90
17728;DHT22;8984;49.268;12.302;2023-12-28T01:22:57;3.00;99.90
17728;DHT22;8984;49.268;12.302;2023-12-28T01:25:25;2.70;99.90
17728;DHT22;8984;49.268;12.302;2023-12-28T01:27:52;2.60;99.90
17728;DHT22;8984;49.268;12.302;2023-12-28T01:30:19;2.70;99.90
17728;DHT22;8984;49.268;12.302;2023-12-28T01:32:45;2.70;99.90
17728;DHT22;8984;49.268;12.302;2023-12-28T01:35:12;2.70;99.90
17728;DHT22;8984;49.268;12.302;2023-12-28T01:37:39;2.80;99.90
17728;DHT22;8984;49.268;12.302;2023-12-28T01:40:06;2.80;99.90
17728;DHT22;8984;49.268;12.302;2023-12-28T01:42:35;2.80;99.90
17728;DHT22;8984;49.268;12.302;2023-12-28T01:45:03;2.80;99.90
17728;DHT22;8984;49.268;12.302;2023-12-28T01:47:30;2.80;99.90
17728;DHT22;8984;49.268;12.302;2023-12-28T01:49:57;2.70;99.90
17728;DHT22;8984;49.268;12.302;2023-12-28T01:52:25;2.60;99.90
17728;DHT22;8984;49.268;12.302;2023-12-28T01:54:52;2.70;99.90
17728;DHT22;8984;49.268;12.302;2023-12-28T01:57:18;2.70;99.90
17728;DHT22;8984;49.268;12.302;2023-12-28T01:59:47;2.70;99.90
17728;DHT22;8984;49.268;12.302;2023-12-28T02:02:14;2.70;99.90
17728;DHT22;8984;49.268;12.302;2023-12-28T02:04:40;2.70;99.90
17728;DHT22;8984;49.268;12.302;2023-12-28T02:07:08;2.70;99.90
17728;DHT22;8984;49.268;12.302;2023-12-28T02:09:35;2.60;99.90
17728;DHT22;8984;49.268;12.302;2023-12-28T02:12:02;2.70;99.90
17728;DHT22;8984;49.268;12.302;2023-12-28T02:14:29;2.70;99.90
17728;DHT22;8984;49.268;12.302;2023-12-28T02:17:02;2.70;99.90
17728;DHT22;8984;49.268;12.302;2023-12-28T02:19:40;2.60;99.90
17728;DHT22;8984;49.268;12.302;2023-12-28T02:22:08;2.50;99.90
17728;DHT22;8984;49.268;12.302;2023-12-28T02:27:32;2.50;99.90
17728;DHT22;8984;49.268;12.302;2023-12-28T02:30:00;2.50;99.90
17728;DHT22;8984;49.268;12.302;2023-12-28T02:32:37;2.50;99.90
17728;DHT22;8984;49.268;12.302;2023-12-28T02:35:14;2.50;99.90
17728;DHT22;8984;49.268;12.302;2023-12-28T02:37:43;2.50;99.90
17728;DHT22;8984;49.268;12.302;2023-12-28T02:40:11;2.40;99.90
17728;DHT22;8984;49.268;12.302;2023-12-28T02:42:41;2.40;99.90
17728;DHT22;8984;49.268;12.302;2023-12-28T02:45:09;2.40;99.90
17728;DHT22;8984;49.268;12.302;2023-12-28T02:47:36;2.30;99.90
17728;DHT22;8984;49.268;12.302;2023-12-28T02:50:03;2.30;99.90
17728;DHT22;8984;49.268;12.302;2023-12-28T02:52:29;2.30;99.90
17728;DHT22;8984;49.268;12.302;2023-12-28T02:54:56;2.40;99.90
17728;DHT22;8984;49.268;12.302;2023-12-28T02:57:23;2.40;99.90
17728;DHT22;8984;49.268;12.302;2023-12-28T02:59:51;2.40;99.90
17728;DHT22;8984;49.268;12.302;2023-12-28T03:02:18;2.40;99.90
17728;DHT22;8984;49.268;12.302;2023-12-28T03:04:44;2.40;99.90
17728;DHT22;8984;49.268;12.302;2023-12-28T03:07:11;2.50;99.90
17728;DHT22;8984;49.268;12.302;2023-12-28T03:09:38;2.50;99.90
17728;DHT22;8984;49.268;12.302;2023-12-28T03:12:06;2.40;99.90
17728;DHT22;8984;49.268;12.302;2023-12-28T03:14:33;2.40;99.90
17728;DHT22;8984;49.268;12.302;2023-12-28T03:17:01;2.40;99.90
17728;DHT22;8984;49.268;12.302;2023-12-28T03:19:27;2.30;99.90
17728;DHT22;8984;49.268;12.302;2023-12-28T03:21:54;2.30;99.90
17728;DHT22;8984;49.268;12.302;2023-12-28T03:24:21;2.20;99.90
17728;DHT22;8984;49.268;12.302;2023-12-28T03:26:48;2.30;99.90
17728;DHT22;8984;49.268;12.302;2023-12-28T03:29:14;2.30;99.90
17728;DHT22;8984;49.268;12.302;2023-12-28T03:31:41;2.20;99.90
17728;DHT22;8984;49.268;12.302;2023-12-28T03:34:09;2.30;99.90
17728;DHT22;8984;49.268;12.302;2023-12-28T03:36:36;2.30;99.90
17728;DHT22;8984;49.268;12.302;2023-12-28T03:39:03;2.30;99.90
17728;DHT22;8984;49.268;12.302;2023-12-28T03:41:30;2.40;99.90
17728;DHT22;8984;49.268;12.302;2023-12-28T03:43:57;2.40;99.90
17728;DHT22;8984;49.268;12.302;2023-12-28T03:46:24;2.40;99.90
17728;DHT22;8984;49.268;12.302;2023-12-28T03:48:51;2.40;99.90
17728;DHT22;8984;49.268;12.302;2023-12-28T03:51:19;2.40;99.90
17728;DHT22;8984;49.268;12.302;2023-12-28T03:53:46;2.40;99.90
17728;DHT22;8984;49.268;12.302;2023-12-28T03:56:23;2.50;99.90
17728;DHT22;8984;49.268;12.302;2023-12-28T03:58:50;2.30;99.90
17728;DHT22;8984;49.268;12.302;2023-12-28T04:01:18;2.30;99.90
17728;DHT22;8984;49.268;12.302;2023-12-28T04:03:45;2.30;99.90
17728;DHT22;8984;49.268;12.302;2023-12-28T04:06:12;2.20;99.90
17728;DHT22;8984;49.268;12.302;2023-12-28T04:08:40;2.30;99.90
17728;DHT22;8984;49.268;12.302;2023-12-28T04:11:07;2.20;99.90
17728;DHT22;8984;49.268;12.302;2023-12-28T04:13:35;2.20;99.90
17728;DHT22;8984;49.268;12.302;2023-12-28T04:16:02;2.20;99.90
17728;DHT22;8984;49.268;12.302;2023-12-28T04:18:29;2.20;99.90
17728;DHT22;8984;49.268;12.302;2023-12-28T04:20:56;2.30;99.90
17728;DHT22;8984;49.268;12.302;2023-12-28T04:23:23;2.40;99.90
17728;DHT22;8984;49.268;12.302;2023-12-28T04:25:51;2.30;99.90
17728;DHT22;8984;49.268;12.302;2023-12-28T04:28:17;2.40;99.90
17728;DHT22;8984;49.268;12.302;2023-12-28T04:30:45;2.40;99.90
17728;DHT22;8984;49.268;12.302;2023-12-28T04:33:11;2.40;99.90
17728;DHT22;8984;49.268;12.302;2023-12-28T04:35:38;2.40;99.90
17728;DHT22;8984;49.268;12.302;2023-12-28T04:38:04;2.20;99.90
17728;DHT22;8984;49.268;12.302;2023-12-28T04:40:31;2.30;99.90
17728;DHT22;8984;49.268;12.302;2023-12-28T04:43:00;2.30;99.90
17728;DHT22;8984;49.268;12.302;2023-12-28T04:45:27;2.30;99.90
17728;DHT22;8984;49.268;12.302;2023-12-28T04:47:54;2.40;99.90
17728;DHT22;8984;49.268;12.302;2023-12-28T04:50:20;2.20;99.90
17728;DHT22;8984;49.268;12.302;2023-12-28T04:52:47;2.30;99.90
17728;DHT22;8984;49.268;12.302;2023-12-28T04:55:14;2.40;99.90
17728;DHT22;8984;49.268;12.302;2023-12-28T04:57:41;2.30;99.90
17728;DHT22;8984;49.268;12.302;2023-12-28T05:00:10;2.20;99.90
17728;DHT22;8984;49.268;12.302;2023-12-28T05:02:37;2.20;99.90
17728;DHT22;8984;49.268;12.302;2023-12-28T05:05:04;2.20;99.90
17728;DHT22;8984;49.268;12.302;2023-12-28T05:07:31;2.30;99.90
17728;DHT22;8984;49.268;12.302;2023-12-28T05:09:57;2.30;99.90
17728;DHT22;8984;49.268;12.302;2023-12-28T05:12:24;2.20;99.90
17728;DHT22;8984;49.268;12.302;2023-12-28T05:14:51;2.20;99.90
17728;DHT22;8984;49.268;12.302;2023-12-28T05:17:19;2.20;99.90
17728;DHT22;8984;49.268;12.302;2023-12-28T05:19:46;2.30;99.90
17728;DHT22;8984;49.268;12.302;2023-12-28T05:22:13;2.30;99.90
17728;DHT22;8984;49.268;12.302;2023-12-28T05:24:40;2.20;99.90
17728;DHT22;8984;49.268;12.302;2023-12-28T05:27:07;2.20;99.90
17728;DHT22;8984;49.268;12.302;2023-12-28T05:29:33;2.30;99.90
17728;DHT22;8984;49.268;12.302;2023-12-28T05:32:00;2.30;99.90
17728;DHT22;8984;49.268;12.302;2023-12-28T05:34:28;2.30;99.90
17728;DHT22;8984;49.268;12.302;2023-12-28T05:36:55;2.30;99.90
17728;DHT22;8984;49.268;12.302;2023-12-28T05:39:22;2.30;99.90
17728;DHT22;8984;49.268;12.302;2023-12-28T05:41:49;2.30;99.90
17728;DHT22;8984;49.268;12.302;2023-12-28T05:44:16;2.30;99.90
17728;DHT22;8984;49.268;12.302;2023-12-28T05:46:43;2.20;99.90
17728;DHT22;8984;49.268;12.302;2023-12-28T05:49:10;2.30;99.90
17728;DHT22;8984;49.268;12.302;2023-12-28T05:51:41;2.40;99.90
17728;DHT22;8984;49.268;12.302;2023-12-28T05:54:08;2.50;99.90
17728;DHT22;8984;49.268;12.302;2023-12-28T05:56:35;2.60;99.90
17728;DHT22;8984;49.268;12.302;2023-12-28T05:59:02;2.60;99.90
17728;DHT22;8984;49.268;12.302;2023-12-28T06:01:29;2.60;99.90
17728;DHT22;8984;49.268;12.302;2023-12-28T06:03:55;2.70;99.90
17728;DHT22;8984;49.268;12.302;2023-12-28T06:06:22;2.70;99.90
17728;DHT22;8984;49.268;12.302;2023-12-28T06:08:50;2.60;99.90
17728;DHT22;8984;49.268;12.302;2023-12-28T06:11:17;2.70;99.90
17728;DHT22;8984;49.268;12.302;2023-12-28T06:13:44;2.80;99.90
17728;DHT22;8984;49.268;12.302;2023-12-28T06:16:11;2.80;99.90
17728;DHT22;8984;49.268;12.302;2023-12-28T06:18:38;2.80;99.90
17728;DHT22;8984;49.268;12.302;2023-12-28T06:21:04;2.80;99.90
17728;DHT22;8984;49.268;12.302;2023-12-28T06:23:32;3.00;99.90
17728;DHT22;8984;49.268;12.302;2023-12-28T06:26:04;3.10;99.90
17728;DHT22;8984;49.268;12.302;2023-12-28T06:28:32;3.10;99.90
17728;DHT22;8984;49.268;12.302;2023-12-28T06:30:58;3.20;99.90
17728;DHT22;8984;49.268;12.302;2023-12-28T06:33:26;3.30;99.90
17728;DHT22;8984;49.268;12.302;2023-12-28T06:35:54;3.20;99.90
17728;DHT22;8984;49.268;12.302;2023-12-28T06:38:20;3.20;99.90
17728;DHT22;8984;49.268;12.302;2023-12-28T06:40:47;3.30;99.90
17728;DHT22;8984;49.268;12.302;2023-12-28T06:43:15;3.30;99.90
17728;DHT22;8984;49.268;12.302;2023-12-28T06:45:42;3.40;99.90
17728;DHT22;8984;49.268;12.302;2023-12-28T06:48:09;3.50;99.90
17728;DHT22;8984;49.268;12.302;2023-12-28T06:50:35;3.60;99.90
17728;DHT22;8984;49.268;12.302;2023-12-28T06:53:02;3.70;99.90
17728;DHT22;8984;49.268;12.302;2023-12-28T06:55:29;3.70;99.90
17728;DHT22;8984;49.268;12.302;2023-12-28T06:57:56;3.70;99.90
17728;DHT22;8984;49.268;12.302;2023-12-28T07:00:24;3.70;99.90
17728;DHT22;8984;49.268;12.302;2023-12-28T07:02:51;3.70;99.90
17728;DHT22;8984;49.268;12.302;2023-12-28T07:05:17;3.70;99.90
17728;DHT22;8984;49.268;12.302;2023-12-28T07:07:44;3.80;99.90
17728;DHT22;8984;49.268;12.302;2023-12-28T07:10:12;3.80;99.90
17728;DHT22;8984;49.268;12.302;2023-12-28T07:12:38;4.00;99.90
17728;DHT22;8984;49.268;12.302;2023-12-28T07:15:06;4.00;99.90
17728;DHT22;8984;49.268;12.302;2023-12-28T07:17:36;4.20;99.90
17728;DHT22;8984;49.268;12.302;2023-12-28T07:20:05;4.30;99.90
17728;DHT22;8984;49.268;12.302;2023-12-28T07:22:34;4.50;99.90
17728;DHT22;8984;49.268;12.302;2023-12-28T07:25:01;4.70;99.90
17728;DHT22;8984;49.268;12.302;2023-12-28T07:27:28;4.80;99.90
17728;DHT22;8984;49.268;12.302;2023-12-28T07:29:55;5.00;99.90
17728;DHT22;8984;49.268;12.302;2023-12-28T07:32:22;5.10;99.90
17728;DHT22;8984;49.268;12.302;2023-12-28T07:34:52;5.30;99.90
17728;DHT22;8984;49.268;12.302;2023-12-28T07:37:19;5.50;99.90
17728;DHT22;8984;49.268;12.302;2023-12-28T07:39:46;5.60;99.90
17728;DHT22;8984;49.268;12.302;2023-12-28T07:42:13;5.70;99.90
17728;DHT22;8984;49.268;12.302;2023-12-28T07:44:40;5.80;99.90
17728;DHT22;8984;49.268;12.302;2023-12-28T07:47:07;5.80;99.90
17728;DHT22;8984;49.268;12.302;2023-12-28T07:49:34;5.70;99.90
17728;DHT22;8984;49.268;12.302;2023-12-28T07:52:02;5.70;99.90
17728;DHT22;8984;49.268;12.302;2023-12-28T07:54:29;5.60;99.90
17728;DHT22;8984;49.268;12.302;2023-12-28T07:56:56;5.50;99.90
17728;DHT22;8984;49.268;12.302;2023-12-28T07:59:23;5.50;99.90
17728;DHT22;8984;49.268;12.302;2023-12-28T08:01:50;5.50;99.90
17728;DHT22;8984;49.268;12.302;2023-12-28T08:04:16;5.40;99.90
17728;DHT22;8984;49.268;12.302;2023-12-28T08:06:43;5.40;99.90
17728;DHT22;8984;49.268;12.302;2023-12-28T08:09:11;5.40;99.90
17728;DHT22;8984;49.268;12.302;2023-12-28T08:11:38;5.50;99.90
17728;DHT22;8984;49.268;12.302;2023-12-28T08:14:05;5.50;99.90
17728;DHT22;8984;49.268;12.302;2023-12-28T08:16:32;5.50;99.90
17728;DHT22;8984;49.268;12.302;2023-12-28T08:19:00;5.60;99.90
17728;DHT22;8984;49.268;12.302;2023-12-28T08:21:27;5.70;99.90
17728;DHT22;8984;49.268;12.302;2023-12-28T08:23:54;5.70;99.90
17728;DHT22;8984;49.268;12.302;2023-12-28T08:26:22;5.70;99.90
17728;DHT22;8984;49.268;12.302;2023-12-28T08:28:49;5.80;99.90
17728;DHT22;8984;49.268;12.302;2023-12-28T08:31:16;5.90;99.90
17728;DHT22;8984;49.268;12.302;2023-12-28T08:33:42;5.90;99.90
17728;DHT22;8984;49.268;12.302;2023-12-28T08:36:09;6.00;99.90
17728;DHT22;8984;49.268;12.302;2023-12-28T08:38:36;6.10;99.90
17728;DHT22;8984;49.268;12.302;2023-12-28T08:41:04;6.10;99.90
17728;DHT22;8984;49.268;12.302;2023-12-28T08:43:35;6.30;99.90
17728;DHT22;8984;49.268;12.302;2023-12-28T08:46:02;6.40;99.90
17728;DHT22;8984;49.268;12.302;2023-12-28T08:48:29;6.50;99.90
17728;DHT22;8984;49.268;12.302;2023-12-28T08:50:56;6.60;99.90
17728;DHT22;8984;49.268;12.302;2023-12-28T08:53:23;6.70;99.90
17728;DHT22;8984;49.268;12.302;2023-12-28T08:55:50;7.00;99.90
17728;DHT22;8984;49.268;12.302;2023-12-28T08:58:16;7.00;99.90
17728;DHT22;8984;49.268;12.302;2023-12-28T09:00:44;7.10;99.90
17728;DHT22;8984;49.268;12.302;2023-12-28T09:03:12;7.10;99.90
17728;DHT22;8984;49.268;12.302;2023-12-28T09:05:39;7.30;99.90
17728;DHT22;8984;49.268;12.302;2023-12-28T09:08:06;7.40;99.90
17728;DHT22;8984;49.268;12.302;2023-12-28T09:10:33;7.50;99.90
17728;DHT22;8984;49.268;12.302;2023-12-28T09:13:00;7.60;99.90
17728;DHT22;8984;49.268;12.302;2023-12-28T09:15:27;7.70;99.90
17728;DHT22;8984;49.268;12.302;2023-12-28T09:17:56;7.80;99.90
17728;DHT22;8984;49.268;12.302;2023-12-28T09:20:22;7.90;99.90
17728;DHT22;8984;49.268;12.302;2023-12-28T09:22:49;7.90;99.90
17728;DHT22;8984;49.268;12.302;2023-12-28T09:25:21;8.00;99.90
17728;DHT22;8984;49.268;12.302;2023-12-28T09:27:48;8.10;99.90
17728;DHT22;8984;49.268;12.302;2023-12-28T09:30:15;8.00;99.90
17728;DHT22;8984;49.268;12.302;2023-12-28T09:32:42;8.10;99.90
17728;DHT22;8984;49.268;12.302;2023-12-28T09:35:13;8.10;99.90
17728;DHT22;8984;49.268;12.302;2023-12-28T09:37:56;8.20;99.90
17728;DHT22;8984;49.268;12.302;2023-12-28T09:40:28;8.30;99.90
17728;DHT22;8984;49.268;12.302;2023-12-28T09:43:03;8.30;99.90
17728;DHT22;8984;49.268;12.302;2023-12-28T09:45:36;8.30;99.90
17728;DHT22;8984;49.268;12.302;2023-12-28T09:48:12;8.30;99.90
17728;DHT22;8984;49.268;12.302;2023-12-28T09:50:54;8.40;99.90
17728;DHT22;8984;49.268;12.302;2023-12-28T09:53:33;8.40;99.90
17728;DHT22;8984;49.268;12.302;2023-12-28T09:56:02;8.40;99.90
17728;DHT22;8984;49.268;12.302;2023-12-28T09:58:33;8.40;99.90
17728;DHT22;8984;49.268;12.302;2023-12-28T10:01:05;8.50;99.90
17728;DHT22;8984;49.268;12.302;2023-12-28T10:03:34;8.60;99.90
17728;DHT22;8984;49.268;12.302;2023-12-28T10:06:03;8.70;99.90
17728;DHT22;8984;49.268;12.302;2023-12-28T10:08:34;8.70;99.90
17728;DHT22;8984;49.268;12.302;2023-12-28T10:11:08;8.80;99.90
17728;DHT22;8984;49.268;12.302;2023-12-28T10:13:50;8.80;99.90
17728;DHT22;8984;49.268;12.302;2023-12-28T10:16:23;8.90;99.90
17728;DHT22;8984;49.268;12.302;2023-12-28T10:18:52;8.90;99.90
17728;DHT22;8984;49.268;12.302;2023-12-28T10:21:28;9.00;99.90
17728;DHT22;8984;49.268;12.302;2023-12-28T10:24:02;9.00;99.90
17728;DHT22;8984;49.268;12.302;2023-12-28T10:26:43;9.00;99.90
17728;DHT22;8984;49.268;12.302;2023-12-28T10:29:17;9.00;99.90
17728;DHT22;8984;49.268;12.302;2023-12-28T10:31:50;9.20;99.90
17728;DHT22;8984;49.268;12.302;2023-12-28T10:34:22;9.20;99.90
17728;DHT22;8984;49.268;12.302;2023-12-28T10:36:56;9.30;99.90
17728;DHT22;8984;49.268;12.302;2023-12-28T10:39:30;9.30;99.90
17728;DHT22;8984;49.268;12.302;2023-12-28T10:42:09;9.20;99.90
17728;DHT22;8984;49.268;12.302;2023-12-28T10:44:53;9.30;99.90
17728;DHT22;8984;49.268;12.302;2023-12-28T10:47:36;9.40;99.90
17728;DHT22;8984;49.268;12.302;2023-12-28T10:50:20;9.30;99.90
17728;DHT22;8984;49.268;12.302;2023-12-28T10:53:01;9.20;99.90
17728;DHT22;8984;49.268;12.302;2023-12-28T10:55:53;9.20;99.90
17728;DHT22;8984;49.268;12.302;2023-12-28T10:58:33;9.20;99.90
17728;DHT22;8984;49.268;12.302;2023-12-28T11:01:10;9.30;99.90
17728;DHT22;8984;49.268;12.302;2023-12-28T11:03:47;9.30;99.90
17728;DHT22;8984;49.268;12.302;2023-12-28T11:06:21;9.20;99.90
17728;DHT22;8984;49.268;12.302;2023-12-28T11:09:12;9.40;99.90
17728;DHT22;8984;49.268;12.302;2023-12-28T11:11:51;9.30;99.90
17728;DHT22;8984;49.268;12.302;2023-12-28T11:14:38;9.30;99.90
17728;DHT22;8984;49.268;12.302;2023-12-28T11:17:25;9.40;99.90
17728;DHT22;8984;49.268;12.302;2023-12-28T11:19:53;9.30;99.90
17728;DHT22;8984;49.268;12.302;2023-12-28T11:22:22;9.40;99.90
17728;DHT22;8984;49.268;12.302;2023-12-28T11:24:53;9.50;99.90
17728;DHT22;8984;49.268;12.302;2023-12-28T11:27:21;9.40;99.90
17728;DHT22;8984;49.268;12.302;2023-12-28T11:29:52;9.40;99.90
17728;DHT22;8984;49.268;12.302;2023-12-28T11:32:26;9.50;99.90
17728;DHT22;8984;49.268;12.302;2023-12-28T11:34:59;9.50;99.90
17728;DHT22;8984;49.268;12.302;2023-12-28T11:37:31;9.50;99.90
17728;DHT22;8984;49.268;12.302;2023-12-28T11:40:17;9.50;99.90
17728;DHT22;8984;49.268;12.302;2023-12-28T11:42:51;9.30;99.90
17728;DHT22;8984;49.268;12.302;2023-12-28T11:45:34;9.40;99.90
17728;DHT22;8984;49.268;12.302;2023-12-28T11:48:23;9.40;99.90
17728;DHT22;8984;49.268;12.302;2023-12-28T11:51:25;9.40;99.90
17728;DHT22;8984;49.268;12.302;2023-12-28T11:53:54;9.40;99.90
17728;DHT22;8984;49.268;12.302;2023-12-28T11:56:25;9.50;99.90
17728;DHT22;8984;49.268;12.302;2023-12-28T11:59:00;9.60;99.90
17728;DHT22;8984;49.268;12.302;2023-12-28T12:01:34;9.60;99.90
17728;DHT22;8984;49.268;12.302;2023-12-28T12:04:16;9.60;99.90
17728;DHT22;8984;49.268;12.302;2023-12-28T12:06:51;9.70;99.90
17728;DHT22;8984;49.268;12.302;2023-12-28T12:09:21;9.70;99.90
17728;DHT22;8984;49.268;12.302;2023-12-28T12:12:11;9.60;99.90
17728;DHT22;8984;49.268;12.302;2023-12-28T12:14:46;9.70;99.90
17728;DHT22;8984;49.268;12.302;2023-12-28T12:17:24;9.70;99.90
17728;DHT22;8984;49.268;12.302;2023-12-28T12:20:09;9.70;99.90
17728;DHT22;8984;49.268;12.302;2023-12-28T12:22:52;9.70;99.90
17728;DHT22;8984;49.268;12.302;2023-12-28T12:25:24;9.70;99.90
17728;DHT22;8984;49.268;12.302;2023-12-28T12:27:59;9.80;99.90
17728;DHT22;8984;49.268;12.302;2023-12-28T12:30:49;10.00;99.90
17728;DHT22;8984;49.268;12.302;2023-12-28T12:33:20;9.90;99.90
17728;DHT22;8984;49.268;12.302;2023-12-28T12:35:56;10.00;99.90
17728;DHT22;8984;49.268;12.302;2023-12-28T12:38:22;10.00;99.90
17728;DHT22;8984;49.268;12.302;2023-12-28T12:40:52;10.00;99.90
17728;DHT22;8984;49.268;12.302;2023-12-28T12:43:24;9.90;99.90
17728;DHT22;8984;49.268;12.302;2023-12-28T12:45:58;9.90;99.90
17728;DHT22;8984;49.268;12.302;2023-12-28T12:48:34;10.00;99.90
17728;DHT22;8984;49.268;12.302;2023-12-28T12:51:13;10.00;99.90
17728;DHT22;8984;49.268;12.302;2023-12-28T12:53:56;10.00;99.90
17728;DHT22;8984;49.268;12.302;2023-12-28T12:56:49;10.10;99.90
17728;DHT22;8984;49.268;12.302;2023-12-28T12:59:21;10.10;99.90
17728;DHT22;8984;49.268;12.302;2023-12-28T13:01:59;10.20;99.90
17728;DHT22;8984;49.268;12.302;2023-12-28T13:04:43;10.20;99.90
17728;DHT22;8984;49.268;12.302;2023-12-28T13:07:15;10.30;99.90
17728;DHT22;8984;49.268;12.302;2023-12-28T13:09:43;10.30;99.90
17728;DHT22;8984;49.268;12.302;2023-12-28T13:12:12;10.30;99.90
17728;DHT22;8984;49.268;12.302;2023-12-28T13:14:44;10.40;99.90
17728;DHT22;8984;49.268;12.302;2023-12-28T13:17:13;10.40;99.90
17728;DHT22;8984;49.268;12.302;2023-12-28T13:19:51;10.30;99.90
17728;DHT22;8984;49.268;12.302;2023-12-28T13:22:22;10.30;99.90
17728;DHT22;8984;49.268;12.302;2023-12-28T13:24:49;10.40;99.90
17728;DHT22;8984;49.268;12.302;2023-12-28T13:27:20;10.30;99.90
17728;DHT22;8984;49.268;12.302;2023-12-28T13:29:50;10.50;99.90
17728;DHT22;8984;49.268;12.302;2023-12-28T13:32:19;10.50;99.90
17728;DHT22;8984;49.268;12.302;2023-12-28T13:34:46;10.50;99.90
17728;DHT22;8984;49.268;12.302;2023-12-28T13:37:18;10.40;99.90
17728;DHT22;8984;49.268;12.302;2023-12-28T13:39:53;10.40;99.90
17728;DHT22;8984;49.268;12.302;2023-12-28T13:42:28;10.40;99.90
17728;DHT22;8984;49.268;12.302;2023-12-28T13:45:13;10.50;99.90
17728;DHT22;8984;49.268;12.302;2023-12-28T13:47:41;10.50;99.90
17728;DHT22;8984;49.268;12.302;2023-12-28T13:50:09;10.70;99.90
17728;DHT22;8984;49.268;12.302;2023-12-28T13:52:38;10.60;99.90
17728;DHT22;8984;49.268;12.302;2023-12-28T13:55:13;10.40;99.90
17728;DHT22;8984;49.268;12.302;2023-12-28T13:57:55;10.50;99.90
17728;DHT22;8984;49.268;12.302;2023-12-28T14:00:40;10.30;99.90
17728;DHT22;8984;49.268;12.302;2023-12-28T14:03:14;10.40;99.90
17728;DHT22;8984;49.268;12.302;2023-12-28T14:05:44;10.30;99.90
17728;DHT22;8984;49.268;12.302;2023-12-28T14:08:16;10.40;99.90
17728;DHT22;8984;49.268;12.302;2023-12-28T14:10:46;10.30;99.90
17728;DHT22;8984;49.268;12.302;2023-12-28T14:13:24;10.30;99.90
17728;DHT22;8984;49.268;12.302;2023-12-28T14:15:59;10.40;99.90
17728;DHT22;8984;49.268;12.302;2023-12-28T14:18:29;10.40;99.90
17728;DHT22;8984;49.268;12.302;2023-12-28T14:21:01;10.30;99.90
17728;DHT22;8984;49.268;12.302;2023-12-28T14:23:39;10.40;99.90
17728;DHT22;8984;49.268;12.302;2023-12-28T14:26:12;10.40;99.90
17728;DHT22;8984;49.268;12.302;2023-12-28T14:28:51;10.30;99.90
17728;DHT22;8984;49.268;12.302;2023-12-28T14:31:32;10.30;99.90
17728;DHT22;8984;49.268;12.302;2023-12-28T14:34:02;10.30;99.90
17728;DHT22;8984;49.268;12.302;2023-12-28T14:36:32;10.20;99.90
17728;DHT22;8984;49.268;12.302;2023-12-28T14:39:05;10.30;99.90
17728;DHT22;8984;49.268;12.302;2023-12-28T14:41:37;10.40;99.90
17728;DHT22;8984;49.268;12.302;2023-12-28T14:44:19;10.10;99.90
17728;DHT22;8984;49.268;12.302;2023-12-28T14:46:53;10.20;99.90
17728;DHT22;8984;49.268;12.302;2023-12-28T14:49:36;10.30;99.90
17728;DHT22;8984;49.268;12.302;2023-12-28T14:52:05;10.20;99.90
17728;DHT22;8984;49.268;12.302;2023-12-28T14:54:32;10.30;99.90
17728;DHT22;8984;49.268;12.302;2023-12-28T14:57:05;10.30;99.90
17728;DHT22;8984;49.268;12.302;2023-12-28T14:59:57;10.30;99.90
17728;DHT22;8984;49.268;12.302;2023-12-28T15:02:44;10.30;99.90
17728;DHT22;8984;49.268;12.302;2023-12-28T15:05:26;10.40;99.90
17728;DHT22;8984;49.268;12.302;2023-12-28T15:08:10;10.20;99.90
17728;DHT22;8984;49.268;12.302;2023-12-28T15:10:44;10.20;99.90
17728;DHT22;8984;49.268;12.302;2023-12-28T15:13:13;10.20;99.90
17728;DHT22;8984;49.268;12.302;2023-12-28T15:15:43;10.20;99.90
17728;DHT22;8984;49.268;12.302;2023-12-28T15:18:26;10.10;99.90
17728;DHT22;8984;49.268;12.302;2023-12-28T15:20:56;10.20;99.90
17728;DHT22;8984;49.268;12.302;2023-12-28T15:23:25;10.20;99.90
17728;DHT22;8984;49.268;12.302;2023-12-28T15:25:55;10.20;99.90
17728;DHT22;8984;49.268;12.302;2023-12-28T15:28:24;10.30;99.90
17728;DHT22;8984;49.268;12.302;2023-12-28T15:30:55;10.20;99.90
17728;DHT22;8984;49.268;12.302;2023-12-28T15:33:24;10.30;99.90
17728;DHT22;8984;49.268;12.302;2023-12-28T15:35:53;10.30;99.90
17728;DHT22;8984;49.268;12.302;2023-12-28T15:38:23;10.30;99.90
17728;DHT22;8984;49.268;12.302;2023-12-28T15:40:55;10.30;99.90
17728;DHT22;8984;49.268;12.302;2023-12-28T15:43:22;10.30;99.90
17728;DHT22;8984;49.268;12.302;2023-12-28T15:45:55;10.20;99.90
17728;DHT22;8984;49.268;12.302;2023-12-28T15:48:34;10.20;99.90
17728;DHT22;8984;49.268;12.302;2023-12-28T15:51:01;10.20;99.90
17728;DHT22;8984;49.268;12.302;2023-12-28T15:53:30;10.10;99.90
17728;DHT22;8984;49.268;12.302;2023-12-28T15:55:58;10.10;99.90
17728;DHT22;8984;49.268;12.302;2023-12-28T15:58:26;10.00;99.90
17728;DHT22;8984;49.268;12.302;2023-12-28T16:00:54;10.00;99.90
17728;DHT22;8984;49.268;12.302;2023-12-28T16:03:25;9.80;99.90
17728;DHT22;8984;49.268;12.302;2023-12-28T16:06:04;9.60;99.90